Juliustown, New Jersey
Current Conditions -  °F | °C
As of 1:43 AM on Monday 24 Nov 2014 (Local Time) from KWRI Reporting Station
Light Rain Light Rain  
Wind Chill: 59°   Ceiling: 500
Heat Index: 59°   Visibility: 9mi
Dew Point: 59°   Wind: 9mph
Humidity: 100%   Direction: 150°SSE
Pressure: 29.83"   Gusts: NA
Location:  40.01°N, 74.67°W
Report Text: KWRI 240643Z AUTO 15008KT 9SM R24/5500FT -RA OVC005 15/15 A2983 RMK AO2
Loading
Personal Weather Stations






























Interactive Weather Map New forecast layout! Learn more

10-Day Weather Forecast

Advertisements
Track Severe Weather on mobile